Time;durP1;ratioP1;P1;durP2;ratioP2;P2;SDS_P1;SDS_P2;PMS_P1;PMS_P2;Temp;Humidity;BMP_temperature;BMP_pressure;BME280_temperature;BME280_humidity;BME280_pressure;Samples;Min_cycle;Max_cycle;Signal;HPM_P1;HPM_P2
2022/03/29 00:00:51;;;;;;;11.67;5.30;;;;;;;10.49;64.08;99932.22;10256846;28;20690;-75
2022/03/29 00:05:54;;;;;;;11.47;5.17;;;;;;;10.42;64.60;99936.63;10256224;28;20228;-72
2022/03/29 00:10:57;;;;;;;13.53;5.43;;;;;;;10.37;64.02;99933.28;10256186;29;20253;-74
2022/03/29 00:16:02;;;;;;;10.40;5.67;;;;;;;10.36;63.38;99909.94;10257148;28;20550;-72
2022/03/29 00:21:06;;;;;;;13.17;5.13;;;;;;;10.34;63.39;99911.72;10261407;29;20223;-71
2022/03/29 00:26:09;;;;;;;10.93;4.67;;;;;;;10.40;63.26;99916.81;10256670;28;20224;-73
2022/03/29 00:31:16;;;;;;;12.53;4.90;;;;;;;10.20;63.00;99906.75;10256334;28;20227;-73
2022/03/29 00:36:19;;;;;;;11.97;5.43;;;;;;;9.88;64.22;99900.31;10255893;29;20228;-65
2022/03/29 00:41:23;;;;;;;14.60;6.47;;;;;;;9.78;64.21;99889.25;10255914;28;20234;-64
2022/03/29 00:46:27;;;;;;;12.33;6.03;;;;;;;9.61;64.53;99886.00;10255947;28;20558;-66
2022/03/29 00:51:30;;;;;;;13.53;5.90;;;;;;;9.57;64.61;99879.16;10257650;28;20224;-64
2022/03/29 00:56:34;;;;;;;8.90;5.10;;;;;;;9.63;64.33;99892.03;10255445;29;20690;-71
2022/03/29 01:01:39;;;;;;;11.30;5.80;;;;;;;9.64;63.88;99877.34;10255752;29;20224;-69
2022/03/29 01:06:43;;;;;;;10.43;5.63;;;;;;;9.64;63.97;99877.34;10255307;29;20243;-71
2022/03/29 01:11:47;;;;;;;15.23;5.53;;;;;;;9.48;64.66;99875.81;10255270;29;20231;-74
2022/03/29 01:22:16;;;;;;;15.93;9.33;;;;;;;9.26;66.37;99883.03;10263680;29;20238;-70
2022/03/29 01:27:21;;;;;;;18.23;8.20;;;;;;;9.26;66.54;99877.84;10259427;28;20219;-72
2022/03/29 01:32:27;;;;;;;13.23;7.60;;;;;;;9.42;66.18;99863.84;10258670;29;20228;-72
2022/03/29 01:37:32;;;;;;;16.87;8.60;;;;;;;9.38;66.37;99858.72;10259192;29;20236;-74
2022/03/29 01:42:36;;;;;;;17.60;8.93;;;;;;;9.37;66.26;99870.78;10258512;29;20307;-72
2022/03/29 01:47:39;;;;;;;18.83;8.30;;;;;;;9.30;66.59;99858.81;10258456;29;20682;-72
2022/03/29 01:52:46;;;;;;;15.73;7.97;;;;;;;9.23;67.08;99855.44;10258453;28;20662;-72
2022/03/29 01:57:50;;;;;;;14.67;8.30;;;;;;;9.11;68.00;99852.16;10262192;29;20673;-70
2022/03/29 02:02:55;;;;;;;15.93;7.73;;;;;;;9.03;68.18;99849.66;10257903;28;20246;-72
2022/03/29 02:08:01;;;;;;;15.07;7.17;;;;;;;8.96;69.04;99842.84;10257768;28;20298;-73
2022/03/29 02:13:04;;;;;;;11.37;6.60;;;;;;;9.06;68.97;99838.44;10257224;29;20228;-70
2022/03/29 02:18:09;;;;;;;12.20;6.37;;;;;;;9.02;69.27;99832.44;10257574;28;20224;-70
2022/03/29 02:23:15;;;;;;;14.87;7.27;;;;;;;8.91;70.11;99836.00;10256988;29;20594;-74
2022/03/29 02:28:19;;;;;;;13.87;6.93;;;;;;;8.87;71.17;99837.78;10261666;29;20224;-71
2022/03/29 02:33:22;;;;;;;12.97;6.13;;;;;;;8.74;70.77;99823.28;10216698;29;20224;-71
2022/03/29 02:38:26;;;;;;;11.47;6.17;;;;;;;8.78;71.17;99822.38;10216955;29;20500;-70
2022/03/29 02:43:30;;;;;;;13.30;7.23;;;;;;;8.73;71.79;99816.38;10216751;29;20295;-71
2022/03/29 02:48:33;;;;;;;19.83;7.93;;;;;;;8.67;71.77;99826.81;10216826;29;20368;-72
2022/03/29 02:53:38;;;;;;;11.30;5.80;;;;;;;8.61;72.06;99826.03;10218799;29;20225;-72
2022/03/29 02:58:41;;;;;;;16.50;8.00;;;;;;;8.61;72.40;99834.59;10219380;29;20221;-71
2022/03/29 03:03:44;;;;;;;19.00;9.77;;;;;;;8.67;72.47;99825.94;10233452;29;20327;-73
2022/03/29 03:08:49;;;;;;;12.97;6.53;;;;;;;8.63;72.28;99825.09;10226999;29;20216;-71
2022/03/29 03:13:52;;;;;;;16.10;6.23;;;;;;;8.52;72.73;99834.72;10258364;28;20240;-73
2022/03/29 03:18:56;;;;;;;13.77;6.30;;;;;;;8.53;73.32;99832.97;10258364;29;20242;-71
2022/03/29 03:24:01;;;;;;;27.07;13.00;;;;;;;8.46;73.58;99821.84;10257936;28;20235;-72
2022/03/29 03:29:04;;;;;;;14.27;7.37;;;;;;;8.50;73.49;99813.19;10257709;28;20220;-72
2022/03/29 03:34:07;;;;;;;15.13;7.67;;;;;;;8.37;75.02;99809.00;10261113;29;20323;-72
2022/03/29 03:39:12;;;;;;;61.13;29.60;;;;;;;8.36;74.85;99816.78;10257480;29;20535;-74
2022/03/29 03:44:15;;;;;;;15.50;9.23;;;;;;;8.51;74.63;99829.59;10257430;28;20551;-71
2022/03/29 03:49:19;;;;;;;23.97;13.60;;;;;;;8.46;74.78;99832.19;10257417;29;20216;-70
2022/03/29 03:54:23;;;;;;;13.57;8.43;;;;;;;8.40;76.05;99829.69;10256831;28;20231;-73
2022/03/29 03:59:27;;;;;;;13.47;7.83;;;;;;;8.26;76.53;99838.44;10256891;28;20226;-72
2022/03/29 04:04:30;;;;;;;15.57;7.90;;;;;;;8.23;76.73;99849.63;10258410;29;20235;-71
2022/03/29 04:09:36;;;;;;;13.20;7.40;;;;;;;8.15;77.09;99846.25;10258359;28;20231;-76
2022/03/29 04:14:39;;;;;;;18.37;7.17;;;;;;;8.15;77.87;99848.81;10256259;29;20224;-70
2022/03/29 04:19:42;;;;;;;13.37;7.57;;;;;;;8.09;77.59;99835.97;10256890;28;20670;-72
2022/03/29 04:24:47;;;;;;;13.67;7.17;;;;;;;8.03;78.16;99829.13;10256273;28;20230;-72
2022/03/29 04:29:50;;;;;;;14.33;8.13;;;;;;;8.02;79.36;99842.06;10256424;28;20224;-74
2022/03/29 04:34:54;;;;;;;15.03;7.90;;;;;;;8.08;79.34;99832.53;10256554;29;20228;-74
2022/03/29 04:39:58;;;;;;;14.97;8.87;;;;;;;7.96;82.70;99827.47;10259900;29;20549;-72
2022/03/29 04:45:02;;;;;;;14.47;8.23;;;;;;;7.74;86.98;99819.88;10255875;28;20315;-74
2022/03/29 04:50:06;;;;;;;14.40;8.17;;;;;;;7.76;89.38;99823.31;10256046;28;20219;-73
2022/03/29 04:55:11;;;;;;;15.43;8.80;;;;;;;7.82;88.41;99833.59;10260430;28;20651;-71
2022/03/29 05:00:20;;;;;;;17.00;9.60;;;;;;;7.69;89.07;99843.19;10263384;29;20242;-73
2022/03/29 05:05:23;;;;;;;16.93;8.00;;;;;;;7.80;88.15;99849.09;10263674;28;20271;-73
2022/03/29 05:10:28;;;;;;;15.43;7.73;;;;;;;7.75;87.63;99852.59;10266008;29;20546;-73
2022/03/29 05:15:31;;;;;;;15.50;8.37;;;;;;;7.77;86.84;99845.69;10262459;28;20602;-71
2022/03/29 05:20:34;;;;;;;16.43;8.50;;;;;;;7.72;89.07;99848.31;10262826;29;20230;-73
2022/03/29 05:25:39;;;;;;;17.07;8.43;;;;;;;7.82;87.71;99843.91;10261891;28;20220;-71
2022/03/29 05:30:43;;;;;;;17.27;9.43;;;;;;;7.66;88.69;99852.66;10262290;28;20672;-73
2022/03/29 05:35:47;;;;;;;19.43;9.07;;;;;;;7.81;88.37;99862.88;10263721;29;20243;-70
2022/03/29 05:40:51;;;;;;;14.77;9.20;;;;;;;7.91;88.32;99851.63;10258931;29;20212;-73
2022/03/29 05:51:12;;;;;;;17.80;8.40;;;;;;;7.75;88.61;99850.88;10257159;29;20227;-74
2022/03/29 05:56:17;;;;;;;16.73;9.10;;;;;;;7.81;88.10;99853.41;10257309;28;20212;-73
2022/03/29 06:01:20;;;;;;;16.60;9.07;;;;;;;7.86;88.92;99853.38;10256424;29;20216;-67
2022/03/29 06:06:24;;;;;;;17.67;10.67;;;;;;;8.01;88.72;99842.91;10256626;28;20232;-71
2022/03/29 06:11:28;;;;;;;20.13;10.47;;;;;;;7.95;87.12;99859.34;10259021;28;20228;-74
2022/03/29 06:16:32;;;;;;;21.77;10.03;;;;;;;8.03;87.29;99865.31;10256073;29;20226;-73
2022/03/29 06:21:37;;;;;;;20.60;11.23;;;;;;;7.96;87.37;99863.63;10254087;29;20215;-73
2022/03/29 06:26:42;;;;;;;21.77;12.20;;;;;;;7.93;87.79;99876.59;10256416;29;20234;-74
2022/03/29 06:31:46;;;;;;;25.07;14.67;;;;;;;7.88;87.86;99883.50;10256075;28;20243;-72
2022/03/29 06:36:50;;;;;;;26.40;16.30;;;;;;;8.06;86.83;99872.16;10256929;28;20629;-73
2022/03/29 06:41:56;;;;;;;25.40;15.00;;;;;;;8.03;86.17;99890.28;10261744;28;20242;-73
2022/03/29 06:47:01;;;;;;;30.23;15.63;;;;;;;8.11;85.63;99891.09;10256560;29;20746;-73
2022/03/29 06:52:05;;;;;;;33.57;18.03;;;;;;;8.07;86.17;99891.97;10255631;28;20228;-72
2022/03/29 06:57:09;;;;;;;23.77;13.17;;;;;;;8.05;84.38;99896.28;10256458;29;20216;-74
2022/03/29 07:02:13;;;;;;;27.30;13.17;;;;;;;7.99;84.98;99902.34;10255113;29;20255;-73
2022/03/29 07:07:17;;;;;;;25.97;14.17;;;;;;;7.90;85.41;99891.25;10255363;29;20234;-72
2022/03/29 07:12:22;;;;;;;25.13;15.17;;;;;;;7.96;85.04;99892.06;10256168;28;20606;-72
2022/03/29 07:17:26;;;;;;;31.63;15.43;;;;;;;8.03;85.33;99892.84;10256780;28;20192;-74
2022/03/29 07:22:29;;;;;;;25.23;15.93;;;;;;;8.10;84.78;99882.47;10254875;29;20208;-73
2022/03/29 07:27:34;;;;;;;29.80;16.20;;;;;;;8.15;84.45;99883.28;10255220;29;20199;-73
2022/03/29 07:32:45;;;;;;;33.83;18.37;;;;;;;8.17;84.56;99891.03;10254036;29;20571;-73
2022/03/29 07:37:49;;;;;;;28.20;16.60;;;;;;;8.14;84.25;99891.06;10254773;28;20639;-73
2022/03/29 07:42:54;;;;;;;28.03;16.47;;;;;;;8.17;84.46;99878.09;10253984;28;20228;-72
2022/03/29 07:47:58;;;;;;;30.87;16.37;;;;;;;8.30;84.37;99878.91;10254417;28;20191;-73
2022/03/29 07:53:24;;;;;;;28.63;14.73;;;;;;;8.61;82.89;99880.34;10253413;28;20546;-74
2022/03/29 07:58:29;;;;;;;27.47;14.60;;;;;;;8.62;82.00;99877.72;10254089;28;20204;-73
2022/03/29 08:03:33;;;;;;;30.50;13.87;;;;;;;8.65;81.11;99884.59;10253361;28;20232;-74
2022/03/29 08:08:37;;;;;;;24.57;12.23;;;;;;;8.85;80.97;99877.50;10253550;29;20192;-72
2022/03/29 08:13:42;;;;;;;22.43;12.23;;;;;;;9.01;79.49;99882.47;10253473;29;20230;-72
2022/03/29 08:18:46;;;;;;;23.30;13.30;;;;;;;8.95;79.23;99872.19;10253242;28;20480;-73
2022/03/29 08:23:49;;;;;;;25.50;13.70;;;;;;;9.28;80.01;99874.34;10253099;28;20206;-73
2022/03/29 08:28:54;;;;;;;25.13;13.33;;;;;;;9.32;77.84;99878.63;10255699;28;20199;-74
2022/03/29 08:33:58;;;;;;;26.43;14.50;;;;;;;9.32;77.43;99877.75;10261112;28;20216;-75
2022/03/29 08:39:03;;;;;;;26.53;13.40;;;;;;;9.05;78.21;99870.34;10260949;28;20195;-73
2022/03/29 08:44:08;;;;;;;25.70;13.60;;;;;;;9.19;77.47;99877.09;10261160;29;20216;-72
2022/03/29 08:49:12;;;;;;;23.90;14.23;;;;;;;9.14;78.02;99872.84;10260465;29;20270;-72
2022/03/29 08:54:16;;;;;;;31.77;17.00;;;;;;;9.23;77.90;99870.13;10259900;29;20228;-74
2022/03/29 08:59:20;;;;;;;27.37;17.33;;;;;;;9.36;77.31;99858.72;10260336;29;20231;-73
2022/03/29 09:04:25;;;;;;;33.67;17.67;;;;;;;9.43;77.96;99862.09;10259596;29;20236;-73
2022/03/29 09:09:30;;;;;;;32.53;17.57;;;;;;;9.60;76.97;99868.75;10260379;28;20524;-73
2022/03/29 09:14:51;;;;;;;32.47;19.87;;;;;;;9.61;76.81;99847.13;10260176;28;20562;-72
2022/03/29 09:19:56;;;;;;;35.63;20.03;;;;;;;9.89;74.97;99850.16;10259573;28;20244;-72
2022/03/29 09:25:00;;;;;;;30.37;19.50;;;;;;;10.37;73.96;99834.69;10258808;28;20220;-73
2022/03/29 09:30:09;;;;;;;35.57;18.97;;;;;;;10.82;71.31;99842.53;10259011;28;20222;-73
2022/03/29 09:35:15;;;;;;;28.77;18.97;;;;;;;10.11;72.98;99834.28;10238723;29;20224;-74
2022/03/29 09:40:19;;;;;;;28.80;18.00;;;;;;;10.17;72.61;99825.56;10258635;28;20308;-72
2022/03/29 09:45:43;;;;;;;30.00;17.00;;;;;;;9.98;73.34;99831.88;10258164;29;20315;-73
2022/03/29 09:50:46;;;;;;;26.90;16.10;;;;;;;9.94;73.87;99825.91;10258374;28;20219;-73
2022/03/29 09:55:59;;;;;;;30.80;17.07;;;;;;;9.97;72.92;99825.88;10257742;28;20228;-73
2022/03/29 10:01:05;;;;;;;29.37;14.80;;;;;;;9.94;73.38;99819.88;10257797;29;20223;-73
2022/03/29 10:06:09;;;;;;;25.70;14.37;;;;;;;9.95;72.97;99830.22;10257627;29;20228;-73
2022/03/29 10:11:14;;;;;;;21.10;12.90;;;;;;;9.98;72.91;99818.94;10258697;29;20761;-73
2022/03/29 10:16:19;;;;;;;23.03;13.80;;;;;;;9.97;72.78;99822.41;10257718;29;20228;-73
2022/03/29 10:21:23;;;;;;;22.87;13.47;;;;;;;10.05;72.94;99820.53;10257405;29;20298;-73
2022/03/29 10:26:31;;;;;;;24.43;13.93;;;;;;;10.20;71.36;99817.72;10257020;29;20728;-75
2022/03/29 10:31:39;;;;;;;22.13;12.00;;;;;;;10.33;70.62;99809.72;10259263;28;20690;-74
2022/03/29 10:37:04;;;;;;;22.63;12.33;;;;;;;10.58;68.58;99801.47;10256319;28;20227;-73
2022/03/29 10:42:33;;;;;;;18.20;11.13;;;;;;;10.28;68.22;99802.91;10256997;29;20259;-74
2022/03/29 10:47:38;;;;;;;25.33;12.80;;;;;;;10.42;69.13;99793.97;10248778;29;20684;-79
2022/03/29 10:52:44;;;;;;;19.33;11.17;;;;;;;10.48;66.99;99793.00;10255561;28;20226;-74
2022/03/29 10:58:08;;;;;;;20.43;10.63;;;;;;;10.53;64.83;99785.97;10256111;28;20216;-74
2022/03/29 11:03:16;;;;;;;15.53;10.17;;;;;;;10.44;63.73;99774.03;10255668;28;20250;-76
2022/03/29 11:08:22;;;;;;;14.00;9.40;;;;;;;10.32;64.42;99773.41;10257071;28;20220;-73
2022/03/29 11:13:27;;;;;;;19.70;11.80;;;;;;;10.27;64.34;99777.81;10257409;28;20569;-71
2022/03/29 11:18:39;;;;;;;16.63;9.00;;;;;;;10.19;65.33;99769.34;10255141;28;20223;-70
2022/03/29 11:23:46;;;;;;;17.07;9.70;;;;;;;10.33;64.46;99767.34;10255055;29;20220;-73
2022/03/29 11:28:51;;;;;;;17.43;10.03;;;;;;;10.55;63.82;99757.41;10254073;29;20228;-71
2022/03/29 11:33:57;;;;;;;16.20;8.93;;;;;;;10.51;63.74;99751.41;10252119;29;20212;-76
2022/03/29 11:39:01;;;;;;;67.07;40.53;;;;;;;10.13;65.00;99752.16;10254862;29;20220;-74
2022/03/29 11:44:07;;;;;;;18.67;9.90;;;;;;;10.09;64.34;99744.47;10255638;28;20270;-75
2022/03/29 11:49:12;;;;;;;17.60;8.33;;;;;;;10.20;64.63;99740.78;10252938;29;20220;-72
2022/03/29 11:54:19;;;;;;;19.60;9.70;;;;;;;10.11;64.86;99730.56;10253097;28;20246;-71
2022/03/29 11:59:23;;;;;;;16.33;9.27;;;;;;;10.17;64.36;99727.88;10252965;28;20243;-72
2022/03/29 12:04:28;;;;;;;15.90;8.30;;;;;;;10.08;64.62;99734.91;10256207;28;20282;-74
2022/03/29 12:09:31;;;;;;;14.87;8.17;;;;;;;9.77;65.33;99747.56;10258150;29;20223;-73
2022/03/29 12:14:37;;;;;;;16.87;8.07;;;;;;;9.68;65.46;99742.53;10255767;28;20234;-73
2022/03/29 12:19:47;;;;;;;13.57;7.27;;;;;;;9.74;65.41;99724.31;10254120;29;20797;-71
2022/03/29 12:24:55;;;;;;;19.90;8.93;;;;;;;9.83;64.47;99721.56;10255419;29;20238;-70
2022/03/29 12:30:02;;;;;;;17.13;8.23;;;;;;;9.94;64.43;99718.78;10255201;29;20219;-74
2022/03/29 12:35:18;;;;;;;18.83;7.60;;;;;;;10.06;63.32;99715.97;10255128;28;20234;-68
2022/03/29 12:40:21;;;;;;;15.63;7.27;;;;;;;10.16;62.50;99714.94;10257853;29;20712;-68
2022/03/29 12:45:25;;;;;;;22.53;10.50;;;;;;;10.15;62.37;99716.69;10255268;28;21005;-70
2022/03/29 12:50:30;;;;;;;17.00;7.33;;;;;;;10.03;62.64;99708.22;10255467;28;20300;-68
2022/03/29 12:55:34;;;;;;;14.00;7.67;;;;;;;9.87;63.67;99706.81;10255449;28;20307;-71
2022/03/29 13:00:39;;;;;;;15.93;7.57;;;;;;;9.95;63.65;99712.72;10255181;29;20216;-72
2022/03/29 13:05:48;;;;;;;18.47;7.07;;;;;;;9.96;63.74;99693.66;10255379;29;20616;-75
2022/03/29 13:10:51;;;;;;;24.07;9.80;;;;;;;9.90;63.87;99707.63;10258009;29;20217;-73
2022/03/29 13:16:05;;;;;;;14.73;7.67;;;;;;;9.88;64.17;99704.19;10257715;28;20331;-71
2022/03/29 13:21:14;;;;;;;18.93;8.43;;;;;;;9.74;65.00;99694.94;10262369;29;20208;-70
2022/03/29 13:26:35;;;;;;;19.13;8.73;;;;;;;9.86;64.36;99699.91;10261014;28;20227;-71
2022/03/29 13:31:40;;;;;;;23.50;9.23;;;;;;;9.85;64.44;99698.22;10259560;29;20220;-73
2022/03/29 13:36:46;;;;;;;20.73;8.80;;;;;;;9.60;64.82;99694.31;10259743;29;20351;-71
2022/03/29 13:41:50;;;;;;;16.47;8.00;;;;;;;9.53;64.38;99682.34;10262015;28;20216;-72
2022/03/29 13:46:54;;;;;;;17.93;8.17;;;;;;;9.54;64.38;99678.91;10260618;29;20220;-67
2022/03/29 13:52:00;;;;;;;17.10;6.90;;;;;;;9.74;64.02;99674.22;10260769;28;20208;-67
2022/03/29 13:57:04;;;;;;;16.27;7.93;;;;;;;9.51;64.70;99666.84;10260456;29;20539;-66
2022/03/29 14:02:09;;;;;;;19.40;8.40;;;;;;;9.65;64.37;99664.00;10259870;28;20307;-66
2022/03/29 14:07:16;;;;;;;19.57;8.17;;;;;;;9.45;65.13;99655.72;10259764;28;20220;-77
2022/03/29 14:12:20;;;;;;;19.73;8.70;;;;;;;9.32;66.23;99655.06;10262449;28;20552;-71
2022/03/29 14:17:24;;;;;;;24.63;10.00;;;;;;;9.44;66.08;99644.50;10259211;28;20222;-72
2022/03/29 14:22:30;;;;;;;17.87;8.53;;;;;;;9.39;66.33;99646.31;9915092;28;10000260;-69
2022/03/29 14:27:33;;;;;;;20.23;9.90;;;;;;;9.32;66.88;99634.34;10254986;28;20263;-70
2022/03/29 14:32:37;;;;;;;19.90;9.40;;;;;;;9.28;66.97;99628.38;10256245;29;20236;-69
2022/03/29 14:37:42;;;;;;;338.37;168.93;;;;;;;9.24;67.26;99626.72;10255139;28;20228;-64
2022/03/29 14:42:46;;;;;;;40.07;17.97;;;;;;;9.40;66.76;99631.66;10256974;28;20574;-71
2022/03/29 14:47:49;;;;;;;26.00;12.00;;;;;;;9.51;66.22;99619.38;10255266;29;20212;-71
2022/03/29 14:52:54;;;;;;;23.10;10.17;;;;;;;9.49;65.03;99615.97;10255178;28;20224;-71
2022/03/29 14:57:58;;;;;;;23.57;9.27;;;;;;;9.49;64.73;99606.44;10255066;29;20527;-72
2022/03/29 15:03:03;;;;;;;18.20;8.33;;;;;;;9.35;64.45;99609.25;10254104;29;20617;-71
2022/03/29 15:08:08;;;;;;;17.53;9.03;;;;;;;9.43;64.75;99597.91;10255993;28;20303;-72
2022/03/29 15:13:14;;;;;;;25.50;10.73;;;;;;;9.46;64.99;99601.31;10255330;28;20220;-70
2022/03/29 15:18:17;;;;;;;18.30;10.23;;;;;;;9.44;65.31;99602.22;10254863;28;20232;-72
2022/03/29 15:23:22;;;;;;;20.57;11.07;;;;;;;9.50;65.58;99591.75;10254625;29;20724;-71
2022/03/29 15:28:26;;;;;;;16.50;10.03;;;;;;;9.61;65.32;99595.00;10254934;28;20253;-74
2022/03/29 15:33:31;;;;;;;20.83;10.43;;;;;;;9.72;65.80;99593.06;10253596;29;20226;-70
2022/03/29 15:38:36;;;;;;;19.70;10.47;;;;;;;9.55;66.53;99587.34;10253741;28;20228;-68
2022/03/29 15:43:39;;;;;;;23.97;11.27;;;;;;;9.52;66.45;99590.00;10254405;28;20208;-73
2022/03/29 15:48:44;;;;;;;25.97;11.03;;;;;;;9.33;67.50;99592.06;10255110;29;20627;-74
2022/03/29 15:53:49;;;;;;;22.53;11.43;;;;;;;9.45;66.84;99578.91;10256954;28;20328;-73
2022/03/29 15:58:54;;;;;;;63.40;29.50;;;;;;;9.41;67.29;99579.81;10256630;29;20228;-73
2022/03/29 16:03:58;;;;;;;26.93;11.57;;;;;;;9.51;66.79;99583.94;10256313;29;20235;-73
2022/03/29 16:09:04;;;;;;;22.77;11.37;;;;;;;9.34;67.08;99573.03;10256703;29;20678;-71
2022/03/29 16:14:08;;;;;;;20.27;10.37;;;;;;;9.34;67.52;99583.41;10256540;29;20216;-70
2022/03/29 16:19:12;;;;;;;23.37;12.30;;;;;;;9.33;67.52;99579.13;10255992;28;20224;-73
2022/03/29 16:24:18;;;;;;;24.43;12.17;;;;;;;9.10;67.82;99579.50;10255773;29;20558;-71
2022/03/29 16:29:28;;;;;;;23.93;11.50;;;;;;;9.09;68.47;99580.38;10257768;28;20676;-70
2022/03/29 16:34:34;;;;;;;23.60;10.67;;;;;;;9.04;68.77;99573.59;10256138;29;20250;-71
2022/03/29 16:39:40;;;;;;;23.47;10.83;;;;;;;9.09;68.23;99580.38;10255434;29;20294;-71
2022/03/29 16:44:45;;;;;;;32.63;16.93;;;;;;;8.94;68.73;99580.63;10255720;28;20207;-70
2022/03/29 16:49:50;;;;;;;25.53;13.27;;;;;;;8.83;69.41;99576.50;10258198;28;20568;-70
2022/03/29 16:54:55;;;;;;;24.30;11.67;;;;;;;8.82;68.97;99575.66;10263400;29;22180;-72
2022/03/29 16:59:59;;;;;;;25.37;11.57;;;;;;;8.66;70.02;99584.50;10263559;28;20651;-69
2022/03/29 17:05:04;;;;;;;22.43;9.97;;;;;;;8.70;70.36;99582.72;10263481;28;20244;-71
2022/03/29 17:10:10;;;;;;;25.63;12.87;;;;;;;8.54;71.03;99578.69;10263453;29;20371;-72
2022/03/29 17:15:14;;;;;;;26.77;12.43;;;;;;;8.44;71.71;99577.13;10263180;28;20591;-72
2022/03/29 17:20:18;;;;;;;54.92;31.23;;;;;;;8.33;73.42;99581.56;10262738;28;20509;-68
2022/03/29 17:25:23;;;;;;;29.43;13.37;;;;;;;8.18;73.79;99595.50;10261914;28;20278;-72
2022/03/29 17:30:28;;;;;;;22.37;12.13;;;;;;;8.28;73.01;99586.81;9917319;28;10000158;-70
2022/03/29 17:35:33;;;;;;;24.70;12.40;;;;;;;8.17;72.53;99588.63;10258608;29;20260;-71
2022/03/29 17:40:37;;;;;;;25.33;12.13;;;;;;;8.20;72.63;99593.75;10259138;29;20259;-71
2022/03/29 17:45:41;;;;;;;28.53;12.97;;;;;;;8.16;72.86;99592.09;10259660;28;20220;-71
2022/03/29 17:50:45;;;;;;;25.50;12.10;;;;;;;8.09;72.85;99595.63;10259622;29;20644;-72
2022/03/29 17:55:50;;;;;;;22.13;12.63;;;;;;;8.02;73.36;99592.25;10258532;29;20546;-73
2022/03/29 18:00:56;;;;;;;22.13;12.70;;;;;;;8.12;72.60;99588.69;10258560;28;20304;-70
2022/03/29 18:05:59;;;;;;;29.80;15.33;;;;;;;7.94;73.14;99583.75;10257717;29;20246;-71
2022/03/29 18:11:04;;;;;;;22.73;12.30;;;;;;;7.83;73.63;99577.88;10258846;29;20220;-73
2022/03/29 18:16:09;;;;;;;22.33;11.70;;;;;;;7.71;74.37;99588.34;10261818;29;20299;-73
2022/03/29 18:21:13;;;;;;;25.53;12.90;;;;;;;7.70;74.28;99591.78;10258089;29;20243;-72
2022/03/29 18:26:20;;;;;;;24.40;13.07;;;;;;;7.69;73.79;99584.91;10257598;29;20303;-71
2022/03/29 18:31:23;;;;;;;25.87;12.20;;;;;;;7.60;74.32;99584.16;10256398;28;20310;-73
2022/03/29 18:36:27;;;;;;;24.00;12.67;;;;;;;7.54;74.46;99579.06;10256937;28;20228;-71
2022/03/29 18:41:32;;;;;;;22.97;13.37;;;;;;;7.62;74.25;99579.81;10256198;29;20216;-73
2022/03/29 18:46:35;;;;;;;26.30;12.63;;;;;;;7.64;73.56;99583.25;10255666;28;20259;-71
2022/03/29 18:51:40;;;;;;;26.17;11.83;;;;;;;7.52;73.61;99584.25;10258667;28;20299;-71
2022/03/29 18:56:46;;;;;;;26.07;12.63;;;;;;;7.38;74.33;99587.81;10255874;28;20234;-70
2022/03/29 19:01:50;;;;;;;24.83;12.93;;;;;;;7.35;73.99;99585.28;10252726;29;20223;-70
2022/03/29 19:06:54;;;;;;;27.33;13.17;;;;;;;7.30;74.35;99587.06;10255435;28;20220;-70
2022/03/29 19:12:00;;;;;;;25.70;13.13;;;;;;;7.24;74.52;99577.63;10255567;28;20226;-75
2022/03/29 19:17:04;;;;;;;28.27;16.37;;;;;;;7.16;75.08;99578.56;10256168;29;20224;-72
2022/03/29 19:22:08;;;;;;;24.27;13.30;;;;;;;7.15;75.17;99577.72;10260316;28;20280;-71
2022/03/29 19:27:15;;;;;;;30.37;13.73;;;;;;;7.09;75.57;99574.34;10256534;28;20383;-70
2022/03/29 19:32:19;;;;;;;26.90;13.87;;;;;;;7.00;76.22;99577.84;10253977;28;20234;-70
2022/03/29 19:37:23;;;;;;;32.20;14.83;;;;;;;6.92;77.10;99574.47;10251978;29;20250;-70
2022/03/29 19:42:30;;;;;;;33.27;15.60;;;;;;;6.83;78.36;99574.56;10253931;28;20212;-70
2022/03/29 19:47:36;;;;;;;31.87;16.57;;;;;;;6.70;79.64;99572.91;10253937;29;20217;-71
2022/03/29 19:52:41;;;;;;;28.80;15.40;;;;;;;6.78;79.51;99563.44;10255555;28;20226;-68
2022/03/29 19:57:46;;;;;;;31.53;14.60;;;;;;;6.73;80.52;99575.50;10251178;29;20294;-72
2022/03/29 20:02:50;;;;;;;33.30;15.93;;;;;;;6.54;81.28;99561.03;10252096;28;20231;-67
2022/03/29 20:07:53;;;;;;;34.93;16.00;;;;;;;6.42;82.69;99564.53;10253109;28;20305;-67
2022/03/29 20:12:58;;;;;;;31.67;17.27;;;;;;;6.44;83.35;99562.78;10252984;29;20230;-66
2022/03/29 20:18:02;;;;;;;36.87;17.40;;;;;;;6.34;84.74;99558.56;10249554;29;20216;-69
2022/03/29 20:23:06;;;;;;;30.53;15.37;;;;;;;6.30;85.11;99559.44;10252639;28;20223;-71
2022/03/29 20:28:15;;;;;;;30.77;16.10;;;;;;;6.54;84.00;99555.88;10252013;28;20216;-69
2022/03/29 20:33:20;;;;;;;37.67;18.80;;;;;;;6.50;83.80;99552.47;10252741;28;20230;-70
2022/03/29 20:38:23;;;;;;;34.13;15.60;;;;;;;6.37;83.98;99543.09;10252852;28;20220;-73
2022/03/29 20:43:28;;;;;;;33.07;16.67;;;;;;;6.33;84.66;99537.97;10250249;29;20228;-69
2022/03/29 20:48:32;;;;;;;32.47;16.73;;;;;;;6.31;84.16;99545.72;10255842;28;20250;-72
2022/03/29 20:53:35;;;;;;;34.40;16.60;;;;;;;6.35;84.34;99534.50;10256925;28;20618;-69
2022/03/29 20:58:40;;;;;;;34.03;17.10;;;;;;;6.31;84.41;99532.84;10253983;28;20240;-73
2022/03/29 21:03:44;;;;;;;52.63;27.57;;;;;;;6.27;85.01;99530.25;10253405;28;20535;-66
2022/03/29 21:08:47;;;;;;;39.97;17.50;;;;;;;6.33;85.39;99535.41;10252588;29;20204;-68
2022/03/29 21:13:54;;;;;;;31.90;16.00;;;;;;;6.32;84.93;99537.09;10252848;28;20199;-69
2022/03/29 21:19:00;;;;;;;31.63;16.53;;;;;;;6.34;85.08;99540.53;10255842;29;20230;-73
2022/03/29 21:24:05;;;;;;;29.10;15.53;;;;;;;6.20;86.06;99542.34;10254083;29;20192;-71
2022/03/29 21:29:10;;;;;;;30.23;16.27;;;;;;;6.10;87.64;99540.69;10254274;29;20214;-70
2022/03/29 21:34:13;;;;;;;39.20;17.50;;;;;;;6.01;87.78;99538.16;10247435;28;20195;-70
2022/03/29 21:39:16;;;;;;;40.37;18.13;;;;;;;6.05;88.04;99542.44;10259558;28;20227;-69
2022/03/29 21:44:21;;;;;;;31.83;17.53;;;;;;;5.96;88.41;99544.19;10259851;28;20215;-69
2022/03/29 21:49:24;;;;;;;38.13;18.73;;;;;;;5.84;90.17;99540.81;10261730;28;20200;-71
2022/03/29 21:54:28;;;;;;;36.33;18.80;;;;;;;5.82;90.66;99546.78;10259356;28;20283;-70
2022/03/29 21:59:32;;;;;;;35.20;17.27;;;;;;;5.85;91.07;99559.66;10259363;28;20618;-70
2022/03/29 22:04:36;;;;;;;34.33;17.93;;;;;;;5.93;90.54;99552.78;10258846;28;20731;-71
2022/03/29 22:09:39;;;;;;;35.80;17.53;;;;;;;5.82;91.84;99567.38;10259097;28;20208;-71
2022/03/29 22:14:44;;;;;;;37.03;18.13;;;;;;;5.75;92.35;99569.13;10258045;28;20200;-68
2022/03/29 22:19:48;;;;;;;39.53;17.90;;;;;;;5.74;93.09;99567.44;10260342;28;20216;-72
2022/03/29 22:24:51;;;;;;;38.67;18.80;;;;;;;5.56;94.28;99574.31;10258065;28;20279;-71
2022/03/29 22:29:56;;;;;;;42.53;20.07;;;;;;;5.51;94.97;99565.78;10258055;28;20200;-68
2022/03/29 22:35:00;;;;;;;43.83;21.23;;;;;;;5.49;95.94;99559.75;10257291;28;20220;-72
2022/03/29 22:40:05;;;;;;;42.77;21.07;;;;;;;5.36;96.56;99558.09;10256718;28;20314;-70
2022/03/29 22:45:11;;;;;;;37.57;18.87;;;;;;;5.21;98.43;99558.13;10256676;28;20220;-67
2022/03/29 22:50:15;;;;;;;41.80;19.40;;;;;;;5.23;100.00;99548.72;10259943;28;20645;-68
2022/03/29 22:55:21;;;;;;;40.47;19.03;;;;;;;5.38;99.93;99556.38;10256211;28;20227;-69
2022/03/29 23:00:28;;;;;;;41.07;19.80;;;;;;;5.39;99.89;99564.09;10256111;28;20238;-68
2022/03/29 23:05:32;;;;;;;45.67;20.53;;;;;;;5.36;99.74;99558.09;10256474;28;20236;-67
2022/03/29 23:10:35;;;;;;;36.53;17.67;;;;;;;5.33;100.00;99548.66;10255622;28;20230;-68
2022/03/29 23:15:40;;;;;;;39.07;18.40;;;;;;;5.36;100.00;99546.09;10255482;28;20306;-67
2022/03/29 23:20:43;;;;;;;39.73;18.17;;;;;;;5.44;100.00;99546.06;10257817;28;20327;-71
2022/03/29 23:25:47;;;;;;;39.20;19.43;;;;;;;5.47;99.71;99549.47;10256786;28;20212;-73
2022/03/29 23:30:52;;;;;;;39.40;21.60;;;;;;;5.45;100.00;99552.94;10255040;28;20294;-70
2022/03/29 23:35:55;;;;;;;40.60;18.73;;;;;;;5.49;98.69;99558.06;10254652;29;20228;-72